Airfield :
LOGIN :

Register | Disclaimer

   EN    FR    IT 

 










Legend :    VFR   Marginal VFR   IFR   Intensive IFR   Very Intensive IFR
Visi :
Ceiling :
>= 8 km
>= 3000ft
5 to 8 km
1000 to 3000 ft
1500m to 5 km
500 to 1000 ft
800 to 1500m
200 to 500 ft
< 800m
< 200 ft
Symbols :   Thunderstorms  Fog  Heavy snow  Heavy precipitations  Wind > 20 kt
SIGMETs :     Misc.  Thunderstorms  Icing  Turbulence  Mountain Waves  Volcanic Ashes







- Airport Elevation : 1276 ft
- IATA code : STR


EDDS - Stuttgart

CURRENT METAR :
  • 211450Z VRB02KT 9999 SCT014 FEW020CB BKN090 20/15 Q1013 NOSIG

EXPIRED METARs :
  • 211420Z VRB02KT 9999 SCT012 FEW020CB BKN090 20/16 Q1013 NOSIG
  • 211350Z 01003KT 270V060 9999 SCT012 BKN090 19/16 Q1013 NOSIG
  • 211320Z 34004KT 310V040 9999 -RA SCT009 BKN090 19/17 Q1013 NOSIG
  • 211250Z 35004KT 290V050 9999 -RA FEW004 SCT008 BKN090 19/17 Q1013 NOSIG
  • 211220Z VRB02KT 9999 -RA FEW004 SCT008 BKN085 19/17 Q1014 NOSIG

TAF TAF EDDS
Valid from the 21 at 12:00 until the 22 at 12:00 UTC


211100Z 2112/2212 VRB03KT 9999 SCT020 BKN035
TEMPO 2112/2120 30015G25KT 4000 TSRA SCT012 BKN030CB
PROB30
TEMPO 2112/2115 BKN009
PROB30
TEMPO 2202/2208 4000 -RA BKN009
No reported NOTAMs for that airfield.



MET'MAP, your aeronautical weather chart ! - Copyright ORBIFLY December 2007 - Disclaimer

ORBIFLY MET'MAP TEAM :

Programming & Development : Alexandra Zaïnal
Concept & Development : Baudouin d'Aumeries
Co-Development & Prog : Marc-Olivier Méhu
Technical & hardware support : Manuel Goepfert

Contact : metmap@orbifly.com




SOURCES & CREDITS :

   NOAA